Main page
METAR-TAF:

METAR-TAF

Airports :

Venice Marco Polo Airport

Venice, Italy

latitude: 45-30N, longitude: 012-20E, elevation: 2 m

Current weather observation

The report was made 39 minutes ago, at 21:50 UTC
Wind 9 kt from the North
Temperature 5°C
Humidity 60%
Pressure 1026 hPa
Visibility 10 km or more
no clouds below 1500 m and no cumulonimbus

METAR: LIPZ 172150Z 36009KT CAVOK 05/M02 Q1026 NOSIG

Time: 23:29 (22:29 UTC)

Forecast

The report was made 5 hours and 29 minutes ago, at 17:00 UTC
Forecast valid from 17 at 18 UTC to 18 at 24 UTC
Wind 15 kt from the East/Northeast
Visibility 10 km or more
no clouds below 1500 m and no cumulonimbus
Temporary
from 17 at 18 UTC to 17 at 22 UTC
Wind 16 kt from the East/Northeast with gusts up to 26 kt

TAF: LIPZ 171700Z 1718/1824 06015KT CAVOK TEMPO 1718/1722 06016G26KT

Weather observations and forecasts of more than 4000 airports (METAR and TAF reports).

The available stations are represented by yellow and red dots on the map.

Hover mouse over dot to see the name of the station.

Then click to see weather observations and forecasts.

To change the map : click on the green buttons with a black cross to zoom in, on the green button with a dash to zoom out, or on the green arrows for adjacent maps.


METAR-TAF: